Weather - Helsinki Query any day in the database

Current weather  

Weather data for a selected day (2006-01-01 -2020-10-30)
Enter date:     <-     scroll days         ->
day curves
Low temperature°C -15.003:20
High temperature°C +2.015:20
Low wind chill°C -17.804:50
Average temperature°C -7.0 
High wind speed (10 min) m/s 4.004:50
Low pressurehPa 1032.001:20
High pressurehPa 1034.022:20
Low R.H% 7415:20
High R.H% 10010:50
Day weather data as a table
Date Time Temp
°C
Chill
°C
Pressure
hPA
Wind
m/s
Hum
%
Precip
mm
2013-02-25 22:50:00 -8.0  -13.1  1033.0 3.0 92 -
2013-02-25 22:20:00 -8.0  -9.7  1034.0 1.0 92 -
2013-02-25 21:50:00 -7.0  -8.6  1034.0 1.0 92 -
2013-02-25 21:20:00 -9.0  -13.0  1034.0 2.0 92 -
2013-02-25 20:50:00 -6.0  -10.7  1034.0 3.0 85 -
2013-02-25 20:20:00 -5.0  -9.5  1034.0 3.0 85 -
2013-02-25 19:50:00 -6.0  -10.7  1034.0 3.0 92 -
2013-02-25 19:20:00 -5.0  -8.3  1034.0 2.0 92 -
2013-02-25 18:50:00 -4.0  -7.1  1034.0 2.0 85 -
2013-02-25 18:20:00 -3.0  -7.1  1034.0 3.0 86 -
2013-02-25 17:20:00 0.0  -3.5  1034.0 3.0 86 -
2013-02-25 16:20:00 1.0  0.3  1034.0 1.0 74 -
2013-02-25 15:20:00 2.0  1.4  1034.0 1.0 74 -
2013-02-25 14:50:00 -1.0  -1.9  1034.0 1.0 80 -
2013-02-25 13:20:00 -3.0  -4.2  1034.0 1.0 86 -
2013-02-25 12:20:00 -3.0  -6.0  1034.0 2.0 92 -
2013-02-25 11:50:00 -5.0  -8.3  1034.0 2.0 92 -
2013-02-25 11:20:00 -6.0  -7.5  1034.0 1.0 92 -
2013-02-25 10:50:00 -6.0  -9.5  1034.0 2.0 100 -
2013-02-25 10:20:00 -8.0  -9.7  1034.0 1.0 100 -
2013-02-25 09:20:00 -8.0  -9.7  1034.0 1.0 100 -
2013-02-25 08:50:00 -9.0  -9.0  1034.0 0.0 100 -
2013-02-25 08:20:00 -10.0  -11.9  1033.0 1.0 92 -
2013-02-25 07:50:00 -10.0  -11.9  1033.0 1.0 92 -
2013-02-25 06:50:00 -9.0  -10.8  1033.0 1.0 92 -
2013-02-25 06:20:00 -8.0  -9.7  1033.0 1.0 100 -
2013-02-25 05:50:00 -7.0  -8.6  1033.0 1.0 92 -
2013-02-25 05:20:00 -10.0  -15.5  1033.0 3.0 92 -
2013-02-25 04:50:00 -11.0  -17.8  1033.0 4.0 85 -
2013-02-25 03:50:00 -13.0  -17.6  1033.0 2.0 84 -
2013-02-25 03:20:00 -15.0  -17.5  1033.0 1.0 84 -
2013-02-25 02:50:00 -11.0  -13.0  1033.0 1.0 85 -
2013-02-25 02:20:00 -11.0  -15.3  1033.0 2.0 85 -
2013-02-25 01:20:00 -11.0  -15.3  1032.0 2.0 85 -
2013-02-25 00:50:00 -11.0  -13.0  1032.0 1.0 92 -
Unit conversions: